Time;durP1;ratioP1;P1;durP2;ratioP2;P2;SDS_P1;SDS_P2;PMS_P1;PMS_P2;Temp;Humidity;BMP_temperature;BMP_pressure;BME280_temperature;BME280_humidity;BME280_pressure;Samples;Min_cycle;Max_cycle;Signal;HPM_P1;HPM_P2
2023/09/10 00:01:19;;;;;;;11.10;4.30;;;31.80;46.80;;;;;;5078403;27;89719;-59
2023/09/10 00:03:47;;;;;;;5.33;3.47;;;31.70;46.80;;;;;;5078894;27;89053;-59
2023/09/10 00:06:15;;;;;;;4.93;3.70;;;31.70;46.80;;;;;;5079042;27;88762;-59
2023/09/10 00:08:43;;;;;;;8.30;4.40;;;31.70;46.80;;;;;;5079258;27;87668;-59
2023/09/10 00:11:11;;;;;;;6.27;3.70;;;31.70;46.80;;;;;;5078688;27;88530;-59
2023/09/10 00:13:39;;;;;;;5.63;4.13;;;31.70;46.80;;;;;;5078375;27;88207;-59
2023/09/10 00:16:07;;;;;;;7.50;3.60;;;31.80;46.90;;;;;;5078978;27;88832;-59
2023/09/10 00:18:38;;;;;;;5.87;4.33;;;31.80;46.80;;;;;;5079338;27;87723;-59
2023/09/10 00:21:07;;;;;;;4.13;3.50;;;31.80;46.90;;;;;;5078294;27;89624;-59
2023/09/10 00:23:35;;;;;;;5.60;3.80;;;31.80;46.90;;;;;;5077541;27;89084;-59
2023/09/10 00:26:03;;;;;;;4.53;4.00;;;31.80;46.90;;;;;;5078442;27;88836;-60
2023/09/10 00:28:31;;;;;;;5.00;4.07;;;31.80;46.90;;;;;;5078557;27;87527;-59
2023/09/10 00:30:59;;;;;;;6.60;3.87;;;31.80;46.90;;;;;;5078992;27;89982;-59
2023/09/10 00:33:27;;;;;;;4.30;3.83;;;31.70;46.90;;;;;;5078149;27;89112;-59
2023/09/10 00:35:56;;;;;;;8.33;4.63;;;31.70;46.90;;;;;;5078205;27;87739;-59
2023/09/10 00:38:25;;;;;;;6.77;4.70;;;31.70;47.00;;;;;;5078539;27;87622;-59
2023/09/10 00:40:53;;;;;;;5.93;4.77;;;31.70;47.00;;;;;;5078632;27;89576;-59
2023/09/10 00:43:21;;;;;;;6.03;4.90;;;31.70;47.00;;;;;;5077457;27;89271;-59
2023/09/10 00:45:49;;;;;;;5.90;4.37;;;31.70;47.00;;;;;;5078474;27;88885;-59
2023/09/10 00:48:17;;;;;;;9.60;5.30;;;31.60;47.00;;;;;;5078549;27;87875;-59
2023/09/10 00:50:45;;;;;;;7.17;4.50;;;31.60;47.50;;;;;;5078019;27;89591;-58
2023/09/10 00:53:15;;;;;;;6.00;4.30;;;31.60;47.10;;;;;;5078142;27;89198;-58
2023/09/10 00:55:43;;;;;;;4.83;4.33;;;31.60;47.20;;;;;;5078182;27;87876;-58
2023/09/10 00:58:11;;;;;;;9.13;4.43;;;31.50;47.80;;;;;;5078429;27;87637;-58
2023/09/10 01:00:39;;;;;;;5.00;4.10;;;31.50;47.20;;;;;;5077633;27;89590;-59
2023/09/10 01:03:07;;;;;;;9.07;5.03;;;31.50;47.20;;;;;;5077760;27;89136;-59
2023/09/10 01:05:36;;;;;;;5.90;4.53;;;31.50;47.20;;;;;;5076832;27;88953;-59
2023/09/10 01:08:04;;;;;;;5.67;4.47;;;31.50;47.20;;;;;;5078184;27;87725;-59
2023/09/10 01:10:40;;;;;;;7.27;4.67;;;31.50;47.30;;;;;;5078040;27;88612;-59
2023/09/10 01:13:12;;;;;;;7.00;4.67;;;31.50;47.30;;;;;;5077885;27;90081;-59
2023/09/10 01:15:42;;;;;;;7.37;4.47;;;31.50;47.30;;;;;;5078320;27;89727;-59
2023/09/10 01:18:13;;;;;;;5.93;4.80;;;31.50;47.40;;;;;;5078165;27;87621;-59
2023/09/10 01:20:54;;;;;;;7.80;4.57;;;31.50;47.40;;;;;;5077424;27;89014;-59
2023/09/10 01:23:28;;;;;;;5.30;4.57;;;31.40;47.30;;;;;;5077767;27;89272;-59
2023/09/10 01:25:58;;;;;;;6.53;4.53;;;31.50;47.40;;;;;;5077322;27;88882;-59
2023/09/10 01:28:26;;;;;;;4.87;4.33;;;31.40;47.30;;;;;;5078134;27;88147;-59
2023/09/10 01:30:54;;;;;;;6.27;4.70;;;31.50;47.50;;;;;;5077453;27;89710;-59
2023/09/10 01:33:31;;;;;;;5.50;4.17;;;31.50;47.40;;;;;;5077496;27;88090;-59
2023/09/10 01:36:02;;;;;;;8.27;4.73;;;31.50;47.40;;;;;;5077201;27;87493;-59
2023/09/10 01:38:33;;;;;;;5.70;4.40;;;31.50;47.50;;;;;;5077993;27;87901;-59
2023/09/10 01:41:05;;;;;;;6.37;4.47;;;31.50;48.10;;;;;;5077414;27;89746;-59
2023/09/10 01:43:33;;;;;;;8.67;4.93;;;31.50;47.50;;;;;;5077319;27;87995;-59
2023/09/10 01:46:01;;;;;;;6.27;4.90;;;31.40;47.40;;;;;;5077559;27;88890;-59
2023/09/10 01:48:30;;;;;;;9.77;5.27;;;31.40;47.50;;;;;;5077849;27;87657;-59
2023/09/10 01:50:58;;;;;;;5.03;4.53;;;31.40;47.50;;;;;;5074456;27;88539;-59
2023/09/10 01:53:26;;;;;;;5.53;4.70;;;31.40;48.20;;;;;;5076686;27;89099;-59
2023/09/10 01:55:54;;;;;;;6.17;5.03;;;31.30;47.50;;;;;;5077458;27;88985;-58
2023/09/10 01:58:23;;;;;;;8.23;4.67;;;31.30;47.50;;;;;;5077171;27;87592;-59
2023/09/10 02:00:51;;;;;;;6.43;4.53;;;31.30;47.60;;;;;;5077267;27;89199;-59
2023/09/10 02:03:19;;;;;;;5.33;4.20;;;31.30;47.50;;;;;;5059642;27;89183;-60
2023/09/10 02:05:48;;;;;;;8.47;4.17;;;31.40;47.60;;;;;;5101104;27;89812;-60
2023/09/10 02:08:16;;;;;;;7.70;4.90;;;31.40;47.60;;;;;;5100580;27;87676;-59
2023/09/10 02:10:44;;;;;;;5.63;4.27;;;31.40;47.60;;;;;;5100760;27;88616;-59
2023/09/10 02:13:12;;;;;;;6.53;4.20;;;31.50;47.60;;;;;;5080698;27;88172;-59
2023/09/10 02:15:41;;;;;;;6.13;5.13;;;31.50;47.60;;;;;;5079274;27;88840;-59
2023/09/10 02:18:09;;;;;;;7.00;5.20;;;31.50;47.60;;;;;;5073677;27;88114;-59
2023/09/10 02:20:38;;;;;;;6.30;5.50;;;31.50;47.60;;;;;;5083656;27;88590;-59
2023/09/10 02:23:06;;;;;;;10.73;5.67;;;31.40;47.50;;;;;;5080358;27;88015;-59
2023/09/10 02:25:34;;;;;;;8.03;5.53;;;31.40;47.60;;;;;;5082169;27;88980;-59
2023/09/10 02:28:05;;;;;;;6.07;5.23;;;31.30;47.60;;;;;;5080407;27;87872;-59
2023/09/10 02:30:33;;;;;;;7.50;5.50;;;31.30;47.60;;;;;;5083322;27;89591;-59
2023/09/10 02:33:03;;;;;;;8.43;5.80;;;31.30;47.60;;;;;;5082274;27;89114;-58
2023/09/10 02:35:31;;;;;;;7.80;5.30;;;31.20;47.70;;;;;;5082953;27;88684;-59
2023/09/10 02:37:59;;;;;;;8.80;5.33;;;31.20;47.70;;;;;;5082784;27;87489;-59
2023/09/10 02:40:27;;;;;;;6.83;5.47;;;31.20;47.70;;;;;;5079884;27;88746;-59
2023/09/10 02:42:55;;;;;;;6.60;5.33;;;31.10;48.30;;;;;;5083088;27;89189;-60
2023/09/10 02:45:23;;;;;;;8.37;5.10;;;31.20;47.80;;;;;;5082601;27;87527;-59
2023/09/10 02:47:51;;;;;;;7.50;5.40;;;31.10;47.70;;;;;;5082598;27;87586;-59
2023/09/10 02:50:20;;;;;;;5.33;4.47;;;31.10;47.70;;;;;;5082585;27;89433;-59
2023/09/10 02:52:48;;;;;;;7.57;5.20;;;31.10;47.70;;;;;;5079811;27;90031;-59
2023/09/10 02:55:17;;;;;;;7.70;5.17;;;31.10;47.70;;;;;;5082731;27;89938;-59
2023/09/10 02:57:45;;;;;;;12.17;4.83;;;31.10;47.70;;;;;;5080381;27;87632;-59
2023/09/10 03:00:14;;;;;;;6.17;4.53;;;31.10;47.70;;;;;;5082751;27;88580;-59
2023/09/10 03:02:42;;;;;;;6.73;4.57;;;31.10;47.70;;;;;;5082215;27;88069;-59
2023/09/10 03:05:10;;;;;;;6.40;4.70;;;31.10;47.70;;;;;;5082029;27;87676;-59
2023/09/10 03:07:40;;;;;;;6.03;4.83;;;31.10;48.30;;;;;;5082675;27;87605;-59
2023/09/10 03:10:08;;;;;;;6.43;4.90;;;31.10;47.70;;;;;;5079150;27;89679;-59
2023/09/10 03:12:36;;;;;;;6.13;4.40;;;31.10;47.70;;;;;;5081772;27;89181;-59
2023/09/10 03:15:05;;;;;;;8.10;4.73;;;31.10;47.70;;;;;;5082264;27;88816;-59
2023/09/10 03:17:33;;;;;;;6.37;4.33;;;31.10;47.70;;;;;;5081819;27;88001;-59
2023/09/10 03:20:04;;;;;;;5.93;4.90;;;31.10;47.70;;;;;;5082563;27;87564;-59
2023/09/10 03:22:32;;;;;;;5.47;4.10;;;31.10;47.60;;;;;;5082353;27;88045;-59
2023/09/10 03:25:01;;;;;;;5.23;3.77;;;31.10;48.30;;;;;;5081909;27;88739;-59
2023/09/10 03:27:29;;;;;;;4.33;3.60;;;31.10;47.60;;;;;;5081567;27;87620;-59
2023/09/10 03:29:57;;;;;;;5.17;4.07;;;31.10;47.60;;;;;;5081426;27;89633;-59
2023/09/10 03:32:25;;;;;;;5.73;4.60;;;31.10;47.50;;;;;;5081928;27;89064;-59
2023/09/10 03:34:54;;;;;;;5.67;4.53;;;31.10;47.60;;;;;;5081971;27;88875;-59
2023/09/10 03:37:22;;;;;;;6.50;4.50;;;31.10;48.20;;;;;;5081360;27;87616;-59
2023/09/10 03:39:50;;;;;;;8.30;4.30;;;31.10;47.60;;;;;;5081924;27;89673;-58
2023/09/10 03:42:19;;;;;;;5.53;4.47;;;31.10;48.20;;;;;;5080716;27;90116;-59
2023/09/10 03:44:47;;;;;;;5.40;3.63;;;31.10;47.60;;;;;;5080878;27;90073;-59
2023/09/10 03:47:15;;;;;;;7.83;4.23;;;31.10;47.60;;;;;;5081697;27;87550;-59
2023/09/10 03:49:43;;;;;;;7.13;4.33;;;31.10;47.70;;;;;;5082086;27;88474;-59
2023/09/10 03:52:18;;;;;;;7.50;4.63;;;31.10;47.70;;;;;;5081943;27;89241;-59
2023/09/10 03:54:46;;;;;;;6.13;5.17;;;31.00;47.60;;;;;;5081232;27;87876;-58
2023/09/10 03:57:14;;;;;;;4.43;3.83;;;31.10;47.60;;;;;;5081688;27;87814;-59
2023/09/10 03:59:43;;;;;;;7.13;4.20;;;31.10;47.70;;;;;;5081258;27;89799;-59
2023/09/10 04:02:11;;;;;;;5.27;4.17;;;31.10;47.60;;;;;;5081140;27;89164;-58
2023/09/10 04:04:41;;;;;;;7.00;4.47;;;31.10;47.60;;;;;;5081237;27;88951;-59
2023/09/10 04:07:09;;;;;;;5.33;4.17;;;31.10;47.60;;;;;;5081155;27;87704;-59
2023/09/10 04:09:37;;;;;;;5.53;4.30;;;31.00;48.20;;;;;;5080976;27;89605;-60
2023/09/10 04:12:06;;;;;;;4.07;3.40;;;31.00;47.60;;;;;;5081299;27;88411;-59
2023/09/10 04:14:34;;;;;;;5.80;4.33;;;31.10;47.70;;;;;;5080866;27;88815;-59
2023/09/10 04:17:04;;;;;;;5.43;4.33;;;31.10;47.60;;;;;;5080856;27;87508;-59
2023/09/10 04:19:32;;;;;;;6.03;4.10;;;31.10;47.60;;;;;;5081088;27;88568;-58
2023/09/10 04:22:00;;;;;;;9.13;5.10;;;31.10;47.60;;;;;;5080603;27;87490;-59
2023/09/10 04:24:28;;;;;;;7.23;5.27;;;31.10;47.60;;;;;;5078401;27;87702;-59
2023/09/10 04:26:56;;;;;;;5.23;4.63;;;31.10;47.60;;;;;;5081209;27;87534;-59
2023/09/10 04:29:24;;;;;;;6.00;3.97;;;31.00;47.50;;;;;;5080237;27;89706;-59
2023/09/10 04:31:52;;;;;;;8.17;5.33;;;31.00;47.60;;;;;;5080400;27;90056;-59
2023/09/10 04:34:22;;;;;;;8.20;4.70;;;31.00;47.60;;;;;;5080992;27;89718;-59
2023/09/10 04:36:50;;;;;;;6.17;4.80;;;31.00;47.60;;;;;;5078951;27;87642;-59
2023/09/10 04:39:19;;;;;;;6.27;5.20;;;31.00;47.60;;;;;;5080799;27;89924;-58
2023/09/10 04:41:47;;;;;;;9.53;4.80;;;31.00;47.60;;;;;;5080819;27;88213;-59
2023/09/10 04:44:15;;;;;;;5.47;4.33;;;31.00;47.60;;;;;;5080739;27;88915;-59
2023/09/10 04:46:43;;;;;;;11.60;5.20;;;31.00;47.60;;;;;;5080674;27;87637;-59
2023/09/10 04:49:11;;;;;;;6.67;5.10;;;31.00;47.60;;;;;;5080064;27;89812;-59
2023/09/10 04:51:41;;;;;;;6.97;4.83;;;31.10;47.60;;;;;;5080751;27;88230;-59
2023/09/10 04:54:09;;;;;;;4.80;3.73;;;31.10;47.60;;;;;;5078287;27;88786;-59
2023/09/10 04:56:37;;;;;;;7.70;4.27;;;31.10;47.60;;;;;;5080456;27;88040;-59
2023/09/10 04:59:05;;;;;;;6.30;4.40;;;31.10;47.60;;;;;;5080060;27;89628;-59
2023/09/10 05:01:33;;;;;;;5.60;4.60;;;31.10;47.60;;;;;;5080799;27;88567;-59
2023/09/10 05:04:01;;;;;;;8.63;4.70;;;31.10;47.60;;;;;;5080801;27;87638;-59
2023/09/10 05:06:29;;;;;;;7.43;5.07;;;31.10;47.60;;;;;;5078344;27;87683;-59
2023/09/10 05:08:58;;;;;;;8.83;4.67;;;31.10;47.60;;;;;;5080235;27;88550;-59
2023/09/10 05:11:26;;;;;;;8.47;4.40;;;31.10;47.60;;;;;;5080770;27;88074;-59
2023/09/10 05:13:54;;;;;;;7.47;4.97;;;31.10;47.60;;;;;;5081082;27;88930;-59
2023/09/10 05:16:23;;;;;;;4.93;4.43;;;31.10;47.60;;;;;;5080013;27;87609;-59
2023/09/10 05:18:52;;;;;;;5.80;4.30;;;31.10;47.50;;;;;;5080063;27;89637;-59
2023/09/10 05:21:21;;;;;;;10.57;5.10;;;31.20;47.60;;;;;;5079632;27;89821;-59
2023/09/10 05:23:49;;;;;;;6.83;5.20;;;31.20;47.60;;;;;;5077772;27;89845;-59
2023/09/10 05:26:18;;;;;;;7.03;4.93;;;31.20;47.60;;;;;;5079184;27;89295;-59
2023/09/10 05:28:46;;;;;;;8.07;5.33;;;31.20;47.50;;;;;;5080123;27;88755;-59
2023/09/10 05:31:15;;;;;;;7.07;5.37;;;31.20;47.50;;;;;;5080202;27;88994;-58
2023/09/10 05:33:43;;;;;;;7.30;5.90;;;31.20;47.50;;;;;;5079612;27;88900;-59
2023/09/10 05:36:11;;;;;;;6.03;4.90;;;31.20;47.50;;;;;;5080678;27;87593;-59
2023/09/10 05:38:39;;;;;;;7.87;4.77;;;31.20;48.10;;;;;;5080467;27;88533;-59
2023/09/10 05:41:07;;;;;;;9.37;6.07;;;31.20;47.50;;;;;;5076551;27;89084;-59
2023/09/10 05:43:37;;;;;;;7.70;5.37;;;31.30;47.50;;;;;;5078002;27;88561;-59
2023/09/10 05:46:05;;;;;;;8.57;5.40;;;31.30;47.50;;;;;;5078323;27;88073;-59
2023/09/10 05:48:34;;;;;;;6.87;5.20;;;31.30;47.50;;;;;;5077225;27;89959;-59
2023/09/10 05:51:02;;;;;;;8.40;5.70;;;31.30;47.50;;;;;;5078489;27;87472;-59
2023/09/10 05:53:31;;;;;;;7.50;5.50;;;31.30;47.40;;;;;;5080401;27;89123;-59
2023/09/10 05:55:59;;;;;;;6.57;5.43;;;31.30;47.40;;;;;;5078546;27;90239;-59
2023/09/10 05:58:27;;;;;;;9.13;6.53;;;31.30;48.10;;;;;;5082039;27;89715;-59
2023/09/10 06:00:56;;;;;;;7.07;5.40;;;31.30;47.40;;;;;;5083282;27;87551;-59
2023/09/10 06:03:24;;;;;;;7.63;5.23;;;31.30;47.40;;;;;;5083286;27;88844;-59
2023/09/10 06:05:52;;;;;;;10.20;5.37;;;31.30;47.30;;;;;;5083691;27;87489;-59
2023/09/10 06:08:20;;;;;;;6.80;5.40;;;31.30;47.30;;;;;;5082351;27;87573;-59
2023/09/10 06:10:48;;;;;;;7.57;5.07;;;31.30;47.30;;;;;;5079527;27;90267;-59
2023/09/10 06:13:17;;;;;;;10.43;5.40;;;31.30;48.00;;;;;;5082558;27;89676;-59
2023/09/10 06:15:45;;;;;;;9.13;5.27;;;31.30;47.30;;;;;;5083161;27;87752;-59
2023/09/10 06:18:14;;;;;;;8.00;5.07;;;31.30;47.30;;;;;;5083109;27;89739;-59
2023/09/10 06:20:42;;;;;;;7.20;5.50;;;31.40;47.30;;;;;;5083465;27;89205;-59
2023/09/10 06:23:10;;;;;;;8.30;4.90;;;31.40;47.30;;;;;;5080576;27;88759;-59
2023/09/10 06:25:38;;;;;;;6.70;5.30;;;31.40;47.30;;;;;;5083067;27;87642;-58
2023/09/10 06:28:06;;;;;;;5.37;4.50;;;31.40;47.30;;;;;;5082822;27;89627;-59
2023/09/10 06:30:34;;;;;;;6.10;4.80;;;31.40;47.90;;;;;;5083421;27;88049;-59
2023/09/10 06:33:03;;;;;;;6.40;4.93;;;31.40;47.30;;;;;;5083267;27;87422;-59
2023/09/10 06:35:34;;;;;;;7.03;4.20;;;31.40;47.20;;;;;;5077793;27;88111;-59
2023/09/10 06:38:02;;;;;;;6.77;4.67;;;31.40;47.30;;;;;;5079634;27;89706;-59
2023/09/10 06:40:30;;;;;;;10.30;4.77;;;31.50;47.30;;;;;;5077303;27;88573;-59
2023/09/10 06:42:58;;;;;;;5.33;4.57;;;31.50;47.30;;;;;;5079506;27;89020;-59
2023/09/10 06:45:26;;;;;;;7.07;4.53;;;31.50;47.90;;;;;;5079102;27;87574;-59
2023/09/10 06:47:54;;;;;;;11.00;5.50;;;31.50;47.30;;;;;;5079467;27;88432;-59
2023/09/10 06:50:23;;;;;;;5.13;4.50;;;31.50;47.20;;;;;;5079540;27;87926;-59
2023/09/10 06:52:52;;;;;;;7.37;5.20;;;31.50;47.30;;;;;;5079613;27;89104;-59
2023/09/10 06:55:20;;;;;;;6.83;4.90;;;31.50;47.20;;;;;;5079184;27;88136;-59
2023/09/10 06:57:48;;;;;;;7.53;4.90;;;31.50;47.20;;;;;;5079746;27;89822;-59
2023/09/10 07:00:17;;;;;;;5.47;4.97;;;31.50;47.20;;;;;;5079017;27;88986;-59
2023/09/10 07:02:45;;;;;;;7.90;4.90;;;31.50;47.20;;;;;;5076480;27;89958;-59
2023/09/10 07:05:13;;;;;;;6.50;4.87;;;31.50;47.20;;;;;;5078497;27;88182;-59
2023/09/10 07:07:41;;;;;;;7.30;4.73;;;31.50;47.20;;;;;;5079251;27;89896;-59
2023/09/10 07:10:11;;;;;;;6.43;4.60;;;31.50;47.20;;;;;;5079385;27;89120;-60
2023/09/10 07:12:39;;;;;;;7.97;5.77;;;31.50;47.20;;;;;;5079148;27;88783;-59
2023/09/10 07:15:07;;;;;;;7.50;4.73;;;31.60;47.30;;;;;;5079560;27;87404;-59
2023/09/10 07:17:36;;;;;;;5.60;4.67;;;31.60;47.30;;;;;;5079963;27;89561;-59
2023/09/10 07:20:05;;;;;;;6.00;4.83;;;31.60;47.30;;;;;;5075901;27;89248;-59
2023/09/10 07:22:33;;;;;;;6.60;4.43;;;31.60;47.30;;;;;;5078369;27;88828;-59
2023/09/10 07:25:02;;;;;;;6.57;4.83;;;31.60;47.30;;;;;;5078648;27;88019;-59
2023/09/10 07:27:31;;;;;;;7.63;5.13;;;31.60;47.30;;;;;;5079156;27;89348;-59
2023/09/10 07:29:59;;;;;;;6.37;4.63;;;31.60;47.30;;;;;;5079367;27;88996;-59
2023/09/10 07:32:27;;;;;;;8.00;4.47;;;31.60;47.80;;;;;;5079281;27;88817;-58
2023/09/10 07:34:56;;;;;;;8.30;4.53;;;31.60;47.20;;;;;;5078625;27;87655;-58
2023/09/10 07:37:24;;;;;;;5.67;4.47;;;31.70;47.30;;;;;;5078525;27;88682;-59
2023/09/10 07:39:52;;;;;;;5.20;4.20;;;31.70;47.20;;;;;;5078650;27;89134;-59
2023/09/10 07:42:20;;;;;;;7.57;4.43;;;31.70;47.20;;;;;;5079170;27;88098;-59
2023/09/10 07:44:49;;;;;;;12.07;4.67;;;31.70;47.10;;;;;;5079050;27;87664;-59
2023/09/10 07:47:17;;;;;;;5.93;4.07;;;31.70;47.10;;;;;;5078736;27;89622;-60
2023/09/10 07:49:45;;;;;;;5.57;4.30;;;31.70;47.10;;;;;;5075529;27;90074;-59
2023/09/10 07:52:16;;;;;;;4.20;3.80;;;31.70;47.80;;;;;;5077382;27;88850;-59
2023/09/10 07:54:44;;;;;;;6.80;4.57;;;31.70;47.10;;;;;;5078017;27;87700;-60
2023/09/10 07:57:12;;;;;;;6.97;4.10;;;31.70;47.10;;;;;;5077259;27;87496;-60
2023/09/10 07:59:43;;;;;;;6.47;4.60;;;31.70;47.10;;;;;;5078838;27;88082;-59
2023/09/10 08:02:12;;;;;;;5.07;4.57;;;31.70;47.20;;;;;;5079076;27;89276;-59
2023/09/10 08:04:40;;;;;;;6.30;4.83;;;31.70;47.30;;;;;;5078200;27;88076;-59
2023/09/10 08:07:10;;;;;;;5.67;4.17;;;31.70;47.30;;;;;;5077855;27;87522;-59
2023/09/10 08:09:39;;;;;;;7.37;4.00;;;31.70;47.30;;;;;;5078106;27;89066;-59
2023/09/10 08:12:07;;;;;;;5.17;4.27;;;31.70;47.30;;;;;;5075756;27;87643;-59
2023/09/10 08:14:37;;;;;;;5.60;4.17;;;31.70;47.30;;;;;;5078230;27;87976;-60
2023/09/10 08:17:06;;;;;;;4.00;3.57;;;31.70;47.30;;;;;;5076112;27;89615;-60
2023/09/10 08:19:35;;;;;;;7.60;4.67;;;31.70;47.30;;;;;;5078293;27;89083;-59
2023/09/10 08:22:03;;;;;;;6.17;4.30;;;31.70;47.30;;;;;;5077711;27;87712;-59
2023/09/10 08:24:31;;;;;;;7.33;4.13;;;31.70;47.40;;;;;;5077532;27;87671;-59
2023/09/10 08:27:02;;;;;;;5.93;3.40;;;31.70;47.40;;;;;;5077918;27;89805;-59
2023/09/10 08:29:30;;;;;;;5.07;4.37;;;31.70;47.40;;;;;;5077835;27;88219;-59
2023/09/10 08:32:00;;;;;;;7.33;5.10;;;31.80;47.40;;;;;;5078465;27;88880;-59
2023/09/10 08:34:28;;;;;;;5.17;4.23;;;31.80;47.50;;;;;;5075017;27;87542;-59
2023/09/10 08:36:58;;;;;;;6.27;4.73;;;31.70;47.50;;;;;;5077873;27;89600;-59
2023/09/10 08:39:26;;;;;;;6.33;4.53;;;31.70;47.50;;;;;;5074080;27;88990;-59
2023/09/10 08:41:58;;;;;;;7.40;4.70;;;31.70;47.60;;;;;;5078008;27;88779;-59
2023/09/10 08:44:26;;;;;;;6.83;4.63;;;31.70;47.60;;;;;;5078077;27;87656;-59
2023/09/10 08:46:54;;;;;;;5.87;4.10;;;31.70;47.60;;;;;;5077301;27;89690;-59
2023/09/10 08:49:22;;;;;;;7.03;5.40;;;31.70;47.70;;;;;;5077741;27;89297;-59
2023/09/10 08:51:51;;;;;;;6.97;4.63;;;31.70;47.70;;;;;;5077767;27;88632;-59
2023/09/10 08:54:20;;;;;;;7.50;4.33;;;31.70;47.70;;;;;;5077331;27;87578;-59
2023/09/10 08:56:49;;;;;;;4.90;4.33;;;31.70;47.70;;;;;;5075501;27;89167;-59
2023/09/10 08:59:17;;;;;;;7.53;5.07;;;31.70;47.80;;;;;;5077133;27;89035;-59
2023/09/10 09:01:45;;;;;;;5.50;4.07;;;31.70;47.80;;;;;;5074758;27;87801;-59
2023/09/10 09:04:14;;;;;;;6.63;4.30;;;31.70;47.80;;;;;;5073095;27;89081;-60
2023/09/10 09:06:42;;;;;;;6.67;4.63;;;31.80;47.90;;;;;;5077757;27;89528;-59
2023/09/10 09:09:10;;;;;;;5.63;3.73;;;31.80;47.90;;;;;;5077817;27;89170;-59
2023/09/10 09:11:39;;;;;;;5.90;4.50;;;31.80;47.90;;;;;;5076502;27;87691;-59
2023/09/10 09:14:07;;;;;;;5.27;3.90;;;31.80;48.00;;;;;;5076154;27;88256;-59
2023/09/10 09:16:36;;;;;;;5.63;4.30;;;31.80;48.00;;;;;;5077098;27;87674;-60
2023/09/10 09:19:05;;;;;;;6.43;4.17;;;31.80;48.00;;;;;;5076984;27;89088;-59
2023/09/10 09:21:33;;;;;;;5.77;4.20;;;31.80;48.00;;;;;;5078068;27;88905;-59
2023/09/10 09:24:03;;;;;;;4.20;3.47;;;31.80;48.00;;;;;;5077768;27;88120;-59
2023/09/10 09:26:31;;;;;;;4.60;3.80;;;31.90;48.10;;;;;;5076178;27;89717;-59
2023/09/10 09:29:01;;;;;;;4.80;4.30;;;31.90;48.10;;;;;;5076182;27;88928;-59
2023/09/10 09:31:29;;;;;;;4.93;4.23;;;31.90;48.20;;;;;;5074836;27;89927;-59
2023/09/10 09:33:57;;;;;;;8.03;4.43;;;31.90;48.20;;;;;;5077789;27;87613;-59
2023/09/10 09:36:26;;;;;;;4.67;4.20;;;32.00;48.20;;;;;;5074250;27;89531;-59
2023/09/10 09:38:54;;;;;;;4.87;3.83;;;31.90;48.80;;;;;;5077531;27;88409;-59
2023/09/10 09:41:22;;;;;;;5.47;3.63;;;31.90;48.20;;;;;;5077273;27;89100;-59
2023/09/10 09:43:50;;;;;;;5.90;4.37;;;32.00;48.20;;;;;;5076984;27;87621;-59
2023/09/10 09:46:20;;;;;;;3.97;3.47;;;32.00;48.30;;;;;;5076651;27;88415;-60
2023/09/10 09:48:49;;;;;;;6.83;4.00;;;31.90;48.80;;;;;;5074130;27;88031;-59
2023/09/10 09:51:17;;;;;;;7.27;3.83;;;32.00;48.20;;;;;;5076932;27;88782;-60
2023/09/10 09:53:45;;;;;;;4.73;3.57;;;32.00;48.30;;;;;;5066167;27;88354;-59
2023/09/10 09:56:13;;;;;;;3.80;3.37;;;32.00;48.30;;;;;;5077604;27;88424;-60
2023/09/10 09:58:41;;;;;;;3.53;3.23;;;32.10;48.30;;;;;;5076371;27;87549;-59
2023/09/10 10:01:09;;;;;;;4.40;3.47;;;32.10;48.30;;;;;;5076204;27;87896;-59
2023/09/10 10:03:39;;;;;;;4.67;4.07;;;32.10;48.40;;;;;;5076541;27;87701;-59
2023/09/10 10:06:08;;;;;;;5.47;3.93;;;32.10;48.30;;;;;;5074067;27;87590;-59
2023/09/10 10:08:37;;;;;;;6.00;3.40;;;32.10;48.30;;;;;;5076527;27;88011;-59
2023/09/10 10:11:06;;;;;;;5.37;3.63;;;32.10;48.30;;;;;;5073463;27;87942;-59
2023/09/10 10:13:34;;;;;;;7.87;3.60;;;32.10;48.30;;;;;;5076698;27;87467;-59
2023/09/10 10:16:02;;;;;;;6.17;4.20;;;32.10;48.40;;;;;;5076043;27;89548;-59
2023/09/10 10:18:30;;;;;;;7.37;3.70;;;32.20;48.40;;;;;;5076437;27;88916;-59
2023/09/10 10:21:00;;;;;;;6.37;3.70;;;32.20;48.40;;;;;;5076885;27;88659;-59
2023/09/10 10:23:28;;;;;;;4.33;3.47;;;32.20;48.40;;;;;;5076953;27;87654;-59
2023/09/10 10:25:58;;;;;;;7.73;4.00;;;32.20;48.40;;;;;;5076977;27;89660;-59
2023/09/10 10:28:26;;;;;;;4.00;3.60;;;32.20;48.40;;;;;;5077060;27;90016;-59
2023/09/10 10:31:00;;;;;;;5.70;3.60;;;32.30;48.50;;;;;;5076753;27;88175;-59
2023/09/10 10:33:28;;;;;;;5.63;3.50;;;32.30;48.50;;;;;;5076869;27;87957;-59
2023/09/10 10:36:08;;;;;;;6.43;3.93;;;32.30;48.40;;;;;;5076850;27;88723;-59
2023/09/10 10:38:36;;;;;;;4.47;3.10;;;32.30;48.40;;;;;;5077721;27;89250;-59
2023/09/10 10:41:06;;;;;;;4.03;3.20;;;32.40;48.40;;;;;;5080670;27;89002;-59
2023/09/10 10:43:38;;;;;;;5.73;3.63;;;32.40;48.40;;;;;;5080082;27;87985;-59
2023/09/10 10:46:07;;;;;;;4.47;3.60;;;32.40;48.30;;;;;;5078877;27;88014;-60
2023/09/10 10:48:36;;;;;;;3.63;3.33;;;32.40;48.30;;;;;;5080223;27;87972;-59
2023/09/10 10:51:07;;;;;;;4.13;3.27;;;32.40;48.30;;;;;;5079746;27;88322;-59
2023/09/10 10:53:35;;;;;;;4.17;3.13;;;32.50;48.30;;;;;;5077062;27;87662;-64
2023/09/10 10:56:04;;;;;;;5.67;2.93;;;32.50;48.20;;;;;;5079222;27;89014;-61
2023/09/10 10:58:34;;;;;;;8.10;3.27;;;32.60;48.30;;;;;;5079054;27;88979;-61
2023/09/10 11:01:02;;;;;;;4.73;3.53;;;32.60;48.20;;;;;;5079868;27;87983;-61
2023/09/10 11:03:32;;;;;;;3.97;3.10;;;32.70;48.30;;;;;;5071461;27;87690;-61
2023/09/10 11:06:08;;;;;;;4.40;3.30;;;32.80;48.50;;;;;;5077007;27;89612;-60
2023/09/10 11:08:37;;;;;;;10.10;5.10;;;32.80;48.50;;;;;;5075922;27;90073;-60
2023/09/10 11:11:08;;;;;;;14.10;8.57;;;32.90;48.50;;;;;;5078823;27;89397;-61
2023/09/10 11:14:00;;;;;;;3.47;3.17;;;33.00;48.40;;;;;;5072062;27;88954;-61
2023/09/10 11:16:30;;;;;;;2.90;2.13;;;33.00;48.30;;;;;;5072696;27;89803;-59
2023/09/10 11:18:58;;;;;;;2.37;2.17;;;33.10;48.00;;;;;;5079054;27;88066;-59
2023/09/10 11:22:03;;;;;;;4.27;2.10;;;33.10;47.80;;;;;;5078905;27;88921;-58
2023/09/10 11:24:34;;;;;;;6.27;2.83;;;33.10;47.60;;;;;;5079244;27;87600;-61
2023/09/10 11:27:21;;;;;;;1.80;1.70;;;33.10;47.40;;;;;;5078749;27;88275;-59
2023/09/10 11:30:05;;;;;;;2.33;2.13;;;33.10;48.00;;;;;;5078185;27;88746;-59
2023/09/10 11:32:33;;;;;;;4.93;2.20;;;33.10;47.20;;;;;;5078942;27;87510;-59
2023/09/10 11:35:26;;;;;;;3.57;1.77;;;33.20;47.60;;;;;;5078888;27;87880;-59
2023/09/10 11:37:56;;;;;;;2.20;2.00;;;33.20;46.90;;;;;;5071446;27;91328;-59
2023/09/10 11:40:25;;;;;;;4.67;3.10;;;33.20;46.60;;;;;;5076364;27;89884;-58
2023/09/10 11:42:54;;;;;;;12.93;7.53;;;33.20;46.40;;;;;;5079869;27;88766;-59
2023/09/10 11:45:22;;;;;;;7.00;5.50;;;33.20;46.30;;;;;;5079348;27;87363;-59
2023/09/10 11:47:51;;;;;;;2.90;2.43;;;33.30;46.20;;;;;;5078892;27;87961;-59
2023/09/10 11:50:23;;;;;;;5.60;2.07;;;33.30;46.00;;;;;;5078572;27;87549;-59
2023/09/10 11:52:52;;;;;;;6.50;2.43;;;33.30;45.90;;;;;;5079820;27;88852;-58
2023/09/10 11:55:22;;;;;;;4.37;2.20;;;33.30;45.80;;;;;;5079479;27;87737;-58
2023/09/10 11:57:50;;;;;;;6.40;2.17;;;33.40;45.70;;;;;;5078345;27;89638;-58
2023/09/10 12:00:18;;;;;;;3.17;1.93;;;33.40;45.70;;;;;;5078564;27;88598;-58
2023/09/10 12:02:46;;;;;;;4.37;2.00;;;33.50;45.60;;;;;;5078692;27;89912;-58
2023/09/10 12:05:14;;;;;;;2.27;2.07;;;33.50;45.50;;;;;;5079272;27;87571;-59
2023/09/10 12:07:44;;;;;;;2.50;1.70;;;33.50;45.50;;;;;;5075462;27;88399;-59
2023/09/10 12:10:13;;;;;;;2.17;1.93;;;33.50;45.40;;;;;;5078239;27;87543;-59
2023/09/10 12:12:43;;;;;;;3.93;1.90;;;33.60;45.30;;;;;;5077580;27;88573;-56
2023/09/10 12:15:11;;;;;;;4.13;1.87;;;33.60;45.30;;;;;;5078232;27;88023;-59
2023/09/10 12:17:39;;;;;;;3.20;1.90;;;33.60;45.30;;;;;;5078077;27;89432;-60
2023/09/10 12:20:09;;;;;;;3.57;1.93;;;33.60;45.20;;;;;;5078087;27;88248;-59
2023/09/10 12:22:37;;;;;;;2.37;1.83;;;33.60;45.20;;;;;;5075954;27;89248;-59
2023/09/10 12:25:07;;;;;;;8.30;3.03;;;33.60;45.20;;;;;;5077948;27;87967;-59
2023/09/10 12:27:36;;;;;;;21.03;5.43;;;33.60;45.20;;;;;;5074493;27;88344;-59
2023/09/10 12:30:08;;;;;;;25.43;6.93;;;33.60;45.10;;;;;;5077964;27;89023;-59
2023/09/10 12:32:36;;;;;;;26.93;7.00;;;33.70;45.20;;;;;;5075014;27;88971;-60
2023/09/10 12:35:05;;;;;;;27.33;7.63;;;33.70;45.20;;;;;;5077658;27;87869;-59
2023/09/10 12:37:33;;;;;;;22.03;6.77;;;33.70;45.20;;;;;;5077441;27;88599;-59
2023/09/10 12:40:02;;;;;;;25.23;6.77;;;33.70;45.20;;;;;;5077355;27;88073;-59
2023/09/10 12:42:30;;;;;;;23.03;6.60;;;33.70;45.30;;;;;;5066790;27;88859;-59
2023/09/10 12:44:58;;;;;;;19.63;5.77;;;33.80;45.40;;;;;;5075408;27;87711;-59
2023/09/10 12:47:27;;;;;;;17.83;4.20;;;33.80;46.20;;;;;;5078052;27;89692;-59
2023/09/10 12:49:56;;;;;;;14.63;4.53;;;33.80;45.50;;;;;;5075015;27;90017;-59
2023/09/10 12:52:24;;;;;;;13.37;4.37;;;33.80;45.50;;;;;;5077886;27;90289;-59
2023/09/10 12:54:52;;;;;;;12.93;4.87;;;33.80;45.50;;;;;;5078572;27;87726;-59